createdAt,value
2018-12-27T00:01:51.903Z,6.40
2018-12-27T00:04:16.331Z,6.46
2018-12-27T00:06:40.744Z,6.60
2018-12-27T00:12:02.304Z,6.67
2018-12-27T00:14:26.728Z,6.44
2018-12-27T00:16:51.137Z,6.80
2018-12-27T00:19:15.560Z,6.57
2018-12-27T00:21:40.037Z,6.34
2018-12-27T00:24:04.459Z,6.45
2018-12-27T00:26:28.877Z,6.31
2018-12-27T00:28:53.284Z,6.26
2018-12-27T00:31:17.922Z,6.42
2018-12-27T00:33:42.452Z,6.07
2018-12-27T00:36:06.978Z,6.29
2018-12-27T00:38:31.530Z,6.44
2018-12-27T00:40:56.060Z,6.35
2018-12-27T00:43:20.604Z,6.45
2018-12-27T00:45:45.148Z,6.27
2018-12-27T00:48:09.683Z,6.25
2018-12-27T00:50:34.211Z,6.27
2018-12-27T00:52:58.813Z,6.19
2018-12-27T00:55:23.349Z,6.01
2018-12-27T00:57:47.878Z,5.91
2018-12-27T01:00:12.399Z,6.14
2018-12-27T01:02:36.928Z,6.31
2018-12-27T01:05:01.546Z,6.26
2018-12-27T01:07:26.068Z,6.15
2018-12-27T01:09:50.626Z,6.11
2018-12-27T01:12:15.162Z,6.10
2018-12-27T01:14:39.703Z,6.09
2018-12-27T01:17:04.233Z,6.16
2018-12-27T01:19:28.771Z,5.91
2018-12-27T01:21:53.302Z,5.80
2018-12-27T01:24:17.850Z,5.81
2018-12-27T01:26:42.391Z,5.93
2018-12-27T01:29:06.909Z,5.83
2018-12-27T01:31:31.430Z,5.78
2018-12-27T01:33:55.955Z,5.93
2018-12-27T01:36:20.505Z,5.95
2018-12-27T01:38:45.013Z,5.92
2018-12-27T01:41:09.529Z,5.84
2018-12-27T01:43:34.061Z,5.71
2018-12-27T01:45:58.668Z,5.87
2018-12-27T01:48:23.202Z,5.58
2018-12-27T01:50:47.734Z,5.72
2018-12-27T01:53:12.285Z,5.73
2018-12-27T01:55:36.801Z,5.58
2018-12-27T01:58:01.326Z,5.40
2018-12-27T02:00:25.837Z,5.48
2018-12-27T02:02:50.379Z,5.54
2018-12-27T02:05:14.896Z,5.23
2018-12-27T02:07:39.410Z,5.42
2018-12-27T02:10:03.951Z,5.18
2018-12-27T02:12:28.479Z,5.07
2018-12-27T02:14:53.016Z,4.90
2018-12-27T02:17:17.530Z,4.92
2018-12-27T02:19:42.061Z,4.79
2018-12-27T02:22:06.564Z,4.86
2018-12-27T02:24:31.102Z,4.85
2018-12-27T02:26:55.625Z,4.46
2018-12-27T02:29:20.169Z,4.87
2018-12-27T02:31:44.691Z,4.87
2018-12-27T02:34:09.218Z,4.82
2018-12-27T02:36:33.735Z,4.87
2018-12-27T02:38:58.267Z,4.90
2018-12-27T02:41:22.792Z,5.17
2018-12-27T02:43:47.298Z,5.06
2018-12-27T02:46:11.839Z,4.88
2018-12-27T02:48:36.365Z,4.92
2018-12-27T02:51:00.897Z,4.92
2018-12-27T02:53:25.426Z,5.04
2018-12-27T02:55:49.971Z,4.83
2018-12-27T02:58:14.503Z,4.86
2018-12-27T03:00:39.014Z,4.66
2018-12-27T03:03:03.541Z,4.64
2018-12-27T03:05:28.055Z,4.53
2018-12-27T03:07:52.579Z,4.78
2018-12-27T03:10:17.104Z,4.93
2018-12-27T03:12:41.647Z,4.48
2018-12-27T03:15:06.177Z,4.65
2018-12-27T03:17:30.789Z,4.69
2018-12-27T03:19:55.303Z,4.61
2018-12-27T03:22:19.820Z,4.29
2018-12-27T03:24:44.364Z,4.25
2018-12-27T03:27:08.889Z,4.24
2018-12-27T03:29:33.471Z,4.36
2018-12-27T03:31:57.978Z,4.21
2018-12-27T03:34:22.498Z,4.53
2018-12-27T03:36:47.008Z,4.52
2018-12-27T03:39:11.538Z,4.65
2018-12-27T03:41:36.059Z,4.43
2018-12-27T03:44:00.615Z,4.38
2018-12-27T03:46:25.133Z,4.49
2018-12-27T03:48:49.638Z,4.36
2018-12-27T03:51:14.185Z,3.99
2018-12-27T03:53:38.697Z,4.12
2018-12-27T03:56:03.236Z,4.61
2018-12-27T03:58:27.755Z,4.97
2018-12-27T04:00:52.291Z,4.86
2018-12-27T04:03:16.807Z,4.85
2018-12-27T04:05:41.327Z,4.90
2018-12-27T04:08:05.845Z,5.00
2018-12-27T04:10:30.363Z,5.01
2018-12-27T04:12:54.885Z,4.80
2018-12-27T04:15:19.262Z,4.97
2018-12-27T04:17:43.685Z,4.80
2018-12-27T04:20:08.076Z,4.78
2018-12-27T04:22:32.566Z,4.90
2018-12-27T04:24:57.015Z,5.06
2018-12-27T04:27:21.430Z,5.15
2018-12-27T04:29:45.842Z,5.04
2018-12-27T04:32:10.577Z,4.90
2018-12-27T04:34:35.206Z,4.55
2018-12-27T04:39:56.868Z,4.66
2018-12-27T04:42:32.716Z,4.35
2018-12-27T04:44:57.116Z,4.57
2018-12-27T04:47:21.511Z,4.47
2018-12-27T04:49:46.191Z,4.45
2018-12-27T04:52:10.573Z,4.35
2018-12-27T04:54:34.972Z,4.56
2018-12-27T04:56:59.370Z,4.64
2018-12-27T04:59:23.774Z,4.39
2018-12-27T05:01:48.171Z,4.50
2018-12-27T05:04:18.055Z,4.56
2018-12-27T05:06:44.373Z,4.66
2018-12-27T05:09:08.686Z,4.69
2018-12-27T05:11:33.077Z,4.18
2018-12-27T05:13:58.287Z,3.98
2018-12-27T05:16:29.230Z,4.25
2018-12-27T05:18:53.603Z,4.29
2018-12-27T05:21:18.042Z,4.27
2018-12-27T05:23:42.445Z,4.36
2018-12-27T05:26:06.843Z,4.69
2018-12-27T05:28:31.232Z,4.51
2018-12-27T05:30:55.614Z,4.29
2018-12-27T05:33:20.035Z,4.18
2018-12-27T05:35:44.422Z,4.33
2018-12-27T05:38:08.828Z,4.33
2018-12-27T05:40:33.225Z,4.32
2018-12-27T05:42:57.610Z,4.61
2018-12-27T05:45:22.033Z,4.53
2018-12-27T05:47:46.434Z,4.60
2018-12-27T05:50:10.837Z,4.57
2018-12-27T05:52:35.218Z,4.62
2018-12-27T05:54:59.592Z,4.52
2018-12-27T05:57:24.009Z,4.51
2018-12-27T05:59:48.397Z,4.68
2018-12-27T06:02:31.942Z,4.89
2018-12-27T06:04:56.316Z,4.74
2018-12-27T06:07:20.719Z,4.54
2018-12-27T06:09:45.137Z,5.06
2018-12-27T06:12:09.531Z,4.57
2018-12-27T06:14:33.944Z,4.64
2018-12-27T06:16:58.328Z,4.49
2018-12-27T06:19:22.747Z,4.61
2018-12-27T06:21:47.156Z,4.44
2018-12-27T06:24:11.558Z,4.47
2018-12-27T06:26:35.967Z,4.47
2018-12-27T06:29:00.359Z,4.47
2018-12-27T06:31:24.801Z,4.54
2018-12-27T06:33:49.202Z,4.50
2018-12-27T06:36:13.595Z,4.13
2018-12-27T06:38:38.006Z,4.51
2018-12-27T06:41:02.398Z,4.40
2018-12-27T06:43:26.834Z,4.66
2018-12-27T06:45:51.224Z,4.49
2018-12-27T06:48:15.904Z,4.37
2018-12-27T06:50:40.314Z,4.74
2018-12-27T06:53:04.710Z,4.43
2018-12-27T06:55:29.132Z,4.68
2018-12-27T06:57:53.515Z,4.70
2018-12-27T07:00:17.919Z,4.56
2018-12-27T07:02:42.337Z,4.73
2018-12-27T07:05:06.730Z,4.73
2018-12-27T07:07:31.151Z,4.51
2018-12-27T07:09:55.552Z,4.64
2018-12-27T07:12:19.963Z,4.70
2018-12-27T07:14:44.384Z,4.89
2018-12-27T07:17:08.770Z,4.59
2018-12-27T07:19:33.162Z,4.67
2018-12-27T07:21:57.585Z,4.25
2018-12-27T07:24:21.968Z,4.44
2018-12-27T07:26:46.356Z,4.63
2018-12-27T07:29:10.795Z,4.72
2018-12-27T07:31:35.193Z,4.65
2018-12-27T07:33:59.578Z,4.64
2018-12-27T07:36:23.978Z,4.29
2018-12-27T07:38:48.375Z,4.74
2018-12-27T07:41:12.810Z,4.58
2018-12-27T07:43:37.196Z,4.42
2018-12-27T07:46:01.575Z,4.67
2018-12-27T07:48:25.978Z,4.68
2018-12-27T07:50:50.387Z,4.42
2018-12-27T07:53:14.822Z,4.55
2018-12-27T07:55:39.216Z,4.53
2018-12-27T07:58:03.615Z,4.66
2018-12-27T08:00:28.043Z,4.52
2018-12-27T08:02:52.439Z,4.29
2018-12-27T08:10:32.202Z,4.68
2018-12-27T08:12:56.609Z,4.81
2018-12-27T08:15:20.995Z,5.08
2018-12-27T08:17:45.408Z,4.69
2018-12-27T08:20:09.795Z,4.77
2018-12-27T08:22:34.236Z,4.89
2018-12-27T08:24:58.627Z,4.85
2018-12-27T08:27:23.023Z,4.91
2018-12-27T08:29:47.433Z,4.77
2018-12-27T08:32:11.846Z,4.55
2018-12-27T08:34:37.145Z,4.69
2018-12-27T08:37:11.337Z,5.00
2018-12-27T08:39:35.732Z,4.72
2018-12-27T08:42:00.156Z,4.52
2018-12-27T08:44:24.536Z,4.61
2018-12-27T08:46:48.990Z,4.67
2018-12-27T08:49:13.378Z,4.82
2018-12-27T08:51:37.778Z,4.82
2018-12-27T08:54:02.200Z,5.12
2018-12-27T08:56:26.603Z,4.93
2018-12-27T08:58:51.031Z,4.91
2018-12-27T09:01:15.424Z,4.91
2018-12-27T09:03:39.819Z,5.31
2018-12-27T09:06:04.219Z,5.02
2018-12-27T09:08:28.598Z,5.24
2018-12-27T09:10:53.032Z,5.20
2018-12-27T09:13:17.444Z,5.23
2018-12-27T09:15:41.862Z,5.10
2018-12-27T09:18:06.281Z,5.08
2018-12-27T09:20:30.681Z,5.08
2018-12-27T09:23:06.868Z,5.29
2018-12-27T09:25:31.266Z,5.02
2018-12-27T09:27:55.686Z,5.30
2018-12-27T09:30:20.086Z,5.19
2018-12-27T09:32:44.487Z,5.08
2018-12-27T09:35:08.906Z,5.34
2018-12-27T09:37:33.332Z,5.35
2018-12-27T09:39:57.796Z,5.30
2018-12-27T09:44:57.957Z,5.27
2018-12-27T09:47:22.371Z,5.23
2018-12-27T09:49:46.771Z,5.30
2018-12-27T09:52:16.907Z,5.33
2018-12-27T09:54:41.291Z,5.44
2018-12-27T09:57:05.695Z,5.54
2018-12-27T09:59:30.254Z,5.48
2018-12-27T10:01:54.733Z,5.22
2018-12-27T10:04:19.181Z,5.38
2018-12-27T10:06:43.593Z,5.35
2018-12-27T10:09:08.069Z,5.49
2018-12-27T10:11:32.872Z,5.66
2018-12-27T10:13:58.148Z,5.64
2018-12-27T10:16:22.625Z,5.39
2018-12-27T10:18:47.011Z,5.59
2018-12-27T10:21:11.451Z,5.69
2018-12-27T10:23:35.841Z,5.59
2018-12-27T10:26:00.230Z,5.91
2018-12-27T10:28:24.698Z,6.02
2018-12-27T10:30:49.104Z,5.78
2018-12-27T10:33:13.536Z,5.52
2018-12-27T10:38:14.520Z,5.77
2018-12-27T10:40:38.916Z,5.56
2018-12-27T10:43:03.320Z,5.72
2018-12-27T10:45:27.732Z,5.83
2018-12-27T10:47:52.143Z,5.64
2018-12-27T10:50:16.573Z,6.04
2018-12-27T10:52:53.836Z,5.76
2018-12-27T10:55:18.268Z,5.52
2018-12-27T10:57:42.674Z,5.91
2018-12-27T11:03:03.625Z,5.99
2018-12-27T11:08:04.686Z,6.13
2018-12-27T11:10:29.086Z,6.05
2018-12-27T11:12:53.523Z,6.13
2018-12-27T11:15:17.931Z,5.92
2018-12-27T11:17:42.324Z,6.06
2018-12-27T11:20:27.557Z,5.97
2018-12-27T11:22:51.965Z,5.91
2018-12-27T11:25:16.369Z,5.67
2018-12-27T11:27:40.777Z,5.91
2018-12-27T11:33:02.498Z,6.04
2018-12-27T11:35:26.878Z,6.41
2018-12-27T11:37:51.309Z,6.35
2018-12-27T11:40:15.691Z,5.95
2018-12-27T11:42:40.088Z,6.17
2018-12-27T11:45:15.855Z,6.15
2018-12-27T11:47:40.248Z,6.38
2018-12-27T11:50:16.157Z,6.19
2018-12-27T11:52:40.547Z,6.07
2018-12-27T11:58:01.721Z,6.27
2018-12-27T12:00:26.110Z,6.10
2018-12-27T12:02:50.530Z,6.24
2018-12-27T12:05:14.934Z,6.11
2018-12-27T12:07:39.380Z,5.95
2018-12-27T12:10:15.162Z,6.21
2018-12-27T12:12:39.582Z,6.28
2018-12-27T12:18:00.500Z,5.90
2018-12-27T12:20:24.906Z,6.36
2018-12-27T12:22:49.293Z,6.23
2018-12-27T12:25:13.705Z,6.09
2018-12-27T12:27:38.108Z,6.03
2018-12-27T12:30:02.604Z,5.82
2018-12-27T12:32:27.018Z,5.57
2018-12-27T12:35:03.713Z,5.45
2018-12-27T12:37:28.272Z,5.73
2018-12-27T12:39:52.681Z,5.88
2018-12-27T12:42:17.457Z,5.59
2018-12-27T12:44:41.878Z,5.88
2018-12-27T12:47:06.322Z,5.93
2018-12-27T12:49:30.731Z,6.02
2018-12-27T12:51:55.150Z,5.81
2018-12-27T12:54:19.591Z,6.03
2018-12-27T12:56:43.991Z,6.06
2018-12-27T12:59:08.394Z,6.06
2018-12-27T13:01:32.843Z,5.94
2018-12-27T13:03:57.238Z,5.84
2018-12-27T13:06:21.647Z,6.09
2018-12-27T13:08:46.074Z,6.09
2018-12-27T13:11:10.470Z,6.17
2018-12-27T13:13:34.874Z,5.99
2018-12-27T13:15:59.282Z,6.36
2018-12-27T13:18:23.718Z,6.08
2018-12-27T13:20:48.157Z,5.99
2018-12-27T13:23:12.923Z,6.34
2018-12-27T13:25:47.672Z,6.18
2018-12-27T13:28:12.080Z,6.33
2018-12-27T13:30:36.473Z,6.30
2018-12-27T13:33:00.898Z,6.34
2018-12-27T13:35:25.299Z,6.07
2018-12-27T13:37:49.737Z,5.99
2018-12-27T13:40:14.135Z,6.38
2018-12-27T13:42:38.535Z,6.34
2018-12-27T13:45:02.975Z,6.47
2018-12-27T13:47:27.378Z,6.14
2018-12-27T13:49:51.811Z,6.33
2018-12-27T13:52:23.770Z,6.25
2018-12-27T13:54:48.142Z,6.43
2018-12-27T13:57:12.556Z,6.09
2018-12-27T13:59:36.960Z,6.45
2018-12-27T14:02:01.386Z,6.39
2018-12-27T14:04:25.778Z,6.18
2018-12-27T14:06:50.176Z,6.00
2018-12-27T14:09:14.577Z,6.34
2018-12-27T14:11:38.959Z,6.15
2018-12-27T14:14:03.392Z,6.25
2018-12-27T14:16:27.791Z,6.51
2018-12-27T14:18:52.225Z,6.12
2018-12-27T14:21:16.643Z,6.06
2018-12-27T14:23:53.461Z,6.30
2018-12-27T14:26:17.897Z,6.22
2018-12-27T14:28:42.285Z,6.28
2018-12-27T14:31:06.692Z,6.38
2018-12-27T14:33:31.118Z,6.22
2018-12-27T14:35:55.513Z,6.07
2018-12-27T14:38:19.932Z,6.36
2018-12-27T14:40:44.345Z,6.17
2018-12-27T14:43:08.755Z,6.47
2018-12-27T14:45:33.170Z,6.40
2018-12-27T14:47:57.575Z,6.14
2018-12-27T14:50:22.009Z,6.30
2018-12-27T14:52:46.407Z,6.35
2018-12-27T14:55:10.783Z,6.47
2018-12-27T14:57:35.215Z,6.45
2018-12-27T14:59:59.612Z,6.26
2018-12-27T15:02:29.678Z,6.35
2018-12-27T15:04:54.077Z,6.30
2018-12-27T15:07:18.466Z,6.29
2018-12-27T15:09:42.993Z,6.32
2018-12-27T15:12:07.423Z,6.64
2018-12-27T15:14:31.839Z,6.46
2018-12-27T15:16:56.239Z,6.30
2018-12-27T15:19:20.674Z,6.62
2018-12-27T15:21:45.076Z,6.67
2018-12-27T15:24:09.500Z,6.56
2018-12-27T15:26:34.180Z,6.43
2018-12-27T15:28:58.591Z,6.38
2018-12-27T15:31:23.006Z,6.53
2018-12-27T15:33:47.405Z,6.34
2018-12-27T15:36:11.813Z,6.39
2018-12-27T15:38:36.243Z,6.42
2018-12-27T15:41:00.646Z,6.18
2018-12-27T15:43:25.055Z,6.32
2018-12-27T15:45:49.550Z,6.29
2018-12-27T15:48:14.172Z,6.49
2018-12-27T15:50:38.560Z,6.43
2018-12-27T15:53:02.955Z,6.26
2018-12-27T15:55:27.382Z,6.39
2018-12-27T15:57:51.782Z,6.37
2018-12-27T16:00:16.183Z,6.28
2018-12-27T16:02:40.596Z,6.47
2018-12-27T16:05:05.228Z,6.44
2018-12-27T16:07:29.683Z,6.57
2018-12-27T16:09:54.085Z,6.32
2018-12-27T16:12:18.493Z,6.42
2018-12-27T16:14:44.528Z,6.45
2018-12-27T16:17:14.816Z,6.42
2018-12-27T16:19:39.271Z,6.53
2018-12-27T16:22:03.656Z,6.33
2018-12-27T16:24:28.064Z,6.46
2018-12-27T16:26:52.477Z,6.46
2018-12-27T16:29:16.865Z,6.47
2018-12-27T16:31:41.295Z,6.67
2018-12-27T16:34:05.772Z,6.37
2018-12-27T16:36:35.855Z,6.48
2018-12-27T16:39:00.455Z,6.39
2018-12-27T16:41:24.851Z,6.70
2018-12-27T16:43:49.262Z,6.61
2018-12-27T16:46:13.691Z,6.33
2018-12-27T16:48:38.150Z,6.43
2018-12-27T16:51:02.551Z,6.36
2018-12-27T16:53:26.970Z,6.42
2018-12-27T16:55:51.375Z,6.48
2018-12-27T16:58:15.830Z,6.60
2018-12-27T17:00:40.216Z,6.21
2018-12-27T17:03:04.692Z,6.41
2018-12-27T17:05:29.118Z,6.66
2018-12-27T17:07:53.513Z,6.38
2018-12-27T17:12:54.432Z,6.63
2018-12-27T17:15:18.845Z,6.34
2018-12-27T17:17:43.275Z,6.55
2018-12-27T17:20:07.695Z,6.05
2018-12-27T17:22:32.152Z,6.52
2018-12-27T17:24:56.580Z,6.46
2018-12-27T17:27:42.594Z,6.68
2018-12-27T17:33:03.783Z,6.89
2018-12-27T17:35:28.183Z,7.11
2018-12-27T17:37:52.646Z,6.79
2018-12-27T17:40:17.037Z,7.01
2018-12-27T17:42:41.459Z,7.05
2018-12-27T17:48:03.145Z,6.71
2018-12-27T17:53:03.660Z,6.46
2018-12-27T17:55:28.205Z,6.40
2018-12-27T17:57:52.598Z,6.65
2018-12-27T18:00:22.297Z,6.66
2018-12-27T18:02:46.705Z,6.70
2018-12-27T18:05:11.080Z,6.49
2018-12-27T18:07:35.608Z,6.50
2018-12-27T18:10:00.003Z,6.59
2018-12-27T18:12:24.403Z,6.69
2018-12-27T18:15:09.597Z,6.41
2018-12-27T18:17:34.049Z,6.81
2018-12-27T18:19:58.425Z,6.66
2018-12-27T18:22:22.833Z,6.50
2018-12-27T18:24:47.330Z,6.68
2018-12-27T18:27:11.737Z,6.73
2018-12-27T18:29:36.128Z,6.49
2018-12-27T18:32:13.016Z,6.56
2018-12-27T18:34:37.412Z,6.41
2018-12-27T18:37:01.856Z,6.55
2018-12-27T18:39:26.263Z,6.24
2018-12-27T18:41:50.798Z,6.18
2018-12-27T18:44:15.184Z,6.55
2018-12-27T18:46:39.584Z,6.23
2018-12-27T18:49:04.071Z,6.47
2018-12-27T18:51:28.398Z,6.04
2018-12-27T18:53:52.836Z,6.34
2018-12-27T18:56:17.270Z,6.16
2018-12-27T18:58:41.663Z,6.38
2018-12-27T19:01:06.094Z,5.90
2018-12-27T19:03:42.631Z,5.95
2018-12-27T19:06:07.087Z,5.98
2018-12-27T19:08:31.474Z,5.93
2018-12-27T19:11:34.478Z,5.84
2018-12-27T19:13:58.897Z,6.03
2018-12-27T19:16:23.306Z,5.94
2018-12-27T19:18:47.703Z,6.14
2018-12-27T19:21:12.368Z,6.00
2018-12-27T19:23:36.772Z,6.06
2018-12-27T19:26:01.181Z,6.24
2018-12-27T19:28:25.624Z,6.38
2018-12-27T19:30:50.012Z,6.14
2018-12-27T19:33:14.537Z,6.08
2018-12-27T19:38:15.613Z,6.31
2018-12-27T19:40:40.025Z,6.29
2018-12-27T19:43:04.403Z,6.16
2018-12-27T19:45:28.840Z,6.19
2018-12-27T19:47:53.236Z,6.07
2018-12-27T19:50:17.787Z,5.95
2018-12-27T19:52:42.203Z,6.04
2018-12-27T19:55:06.641Z,6.17
2018-12-27T19:57:31.042Z,5.93
2018-12-27T19:59:55.455Z,5.95
2018-12-27T20:02:20.264Z,6.07
2018-12-27T20:07:20.387Z,5.99
2018-12-27T20:09:44.879Z,6.05
2018-12-27T20:12:09.280Z,6.14
2018-12-27T20:14:33.726Z,6.17
2018-12-27T20:16:58.104Z,6.29
2018-12-27T20:19:22.509Z,6.01
2018-12-27T20:21:47.001Z,6.27
2018-12-27T20:24:11.425Z,5.97
2018-12-27T20:26:35.858Z,6.27
2018-12-27T20:29:00.268Z,6.03
2018-12-27T20:31:24.671Z,6.26
2018-12-27T20:33:49.107Z,6.03
2018-12-27T20:36:13.538Z,5.85
2018-12-27T20:38:37.943Z,5.68
2018-12-27T20:41:02.372Z,5.99
2018-12-27T20:43:26.786Z,6.09
2018-12-27T20:45:51.208Z,6.07
2018-12-27T20:48:21.346Z,6.08
2018-12-27T20:50:46.073Z,6.24
2018-12-27T20:53:10.531Z,6.14
2018-12-27T20:55:34.947Z,6.07
2018-12-27T20:57:59.421Z,6.01
2018-12-27T21:00:23.837Z,6.05
2018-12-27T21:02:48.266Z,6.00
2018-12-27T21:05:12.703Z,6.06
2018-12-27T21:07:37.126Z,6.15
2018-12-27T21:10:01.568Z,5.98
2018-12-27T21:12:26.001Z,5.93
2018-12-27T21:14:50.441Z,5.98
2018-12-27T21:17:14.849Z,5.82
2018-12-27T21:22:15.709Z,5.93
2018-12-27T21:24:40.103Z,6.17
2018-12-27T21:27:04.532Z,6.21
2018-12-27T21:29:28.922Z,6.33
2018-12-27T21:31:53.378Z,6.23
2018-12-27T21:34:17.796Z,6.38
2018-12-27T21:36:42.198Z,6.21
2018-12-27T21:39:27.406Z,6.20
2018-12-27T21:41:51.786Z,6.28
2018-12-27T21:44:16.226Z,6.20
2018-12-27T21:46:40.647Z,6.22
2018-12-27T21:49:05.041Z,6.18
2018-12-27T21:51:29.471Z,5.84
2018-12-27T21:53:53.910Z,5.69
2018-12-27T21:56:18.360Z,5.67
2018-12-27T21:58:42.795Z,5.90
2018-12-27T22:01:07.169Z,5.92
2018-12-27T22:03:31.622Z,6.04
2018-12-27T22:05:56.029Z,6.00
2018-12-27T22:08:20.463Z,5.86
2018-12-27T22:10:44.863Z,5.88
2018-12-27T22:13:09.276Z,5.80
2018-12-27T22:15:33.704Z,5.71
2018-12-27T22:17:58.082Z,5.85
2018-12-27T22:20:22.492Z,5.76
2018-12-27T22:22:46.905Z,5.85
2018-12-27T22:25:11.325Z,5.66
2018-12-27T22:27:35.753Z,5.68
2018-12-27T22:30:00.235Z,6.05
2018-12-27T22:32:24.672Z,5.73
2018-12-27T22:34:49.123Z,5.85
2018-12-27T22:37:13.540Z,5.95
2018-12-27T22:39:37.985Z,6.11
2018-12-27T22:42:02.421Z,5.79
2018-12-27T22:44:26.953Z,5.58
2018-12-27T22:46:51.408Z,5.36
2018-12-27T22:51:51.002Z,5.85
2018-12-27T22:54:15.397Z,5.65
2018-12-27T22:56:39.848Z,5.68
2018-12-27T22:59:04.239Z,5.80
2018-12-27T23:01:28.693Z,5.82
2018-12-27T23:03:53.096Z,5.84
2018-12-27T23:06:17.491Z,5.97
2018-12-27T23:08:43.206Z,5.78
2018-12-27T23:11:16.966Z,5.73
2018-12-27T23:13:41.539Z,5.64
2018-12-27T23:16:05.963Z,5.71
2018-12-27T23:18:30.357Z,5.68
2018-12-27T23:20:54.783Z,5.84
2018-12-27T23:23:19.184Z,5.60
2018-12-27T23:25:43.594Z,5.85
2018-12-27T23:28:08.178Z,5.93
2018-12-27T23:30:32.570Z,6.12
2018-12-27T23:32:57.033Z,6.09
2018-12-27T23:35:21.421Z,6.16
2018-12-27T23:37:45.827Z,5.94
2018-12-27T23:40:10.253Z,5.92
2018-12-27T23:42:34.678Z,6.04
2018-12-27T23:44:59.097Z,6.13
2018-12-27T23:47:23.484Z,5.80
2018-12-27T23:49:47.860Z,6.12
2018-12-27T23:52:12.284Z,6.12
2018-12-27T23:54:36.671Z,6.34
2018-12-27T23:57:01.109Z,6.10
2018-12-27T23:59:25.505Z,6.10
